sensor_id;sensor_type;location;lat;lon;timestamp;pressure;altitude;pressure_sealevel;temperature;humidity
58759;BME280;46777;47.482;19.054;2022-07-03T00:01:32;100817.63;;;24.92;51.85
58759;BME280;46777;47.482;19.054;2022-07-03T00:04:17;100824.38;;;25.00;51.99
58759;BME280;46777;47.482;19.054;2022-07-03T00:07:04;100813.63;;;25.00;52.56
58759;BME280;46777;47.482;19.054;2022-07-03T00:09:49;100817.78;;;24.89;52.27
58759;BME280;46777;47.482;19.054;2022-07-03T00:12:35;100811.66;;;24.87;52.78
58759;BME280;46777;47.482;19.054;2022-07-03T00:15:20;100813.88;;;24.79;53.07
58759;BME280;46777;47.482;19.054;2022-07-03T00:18:05;100808.78;;;24.90;52.77
58759;BME280;46777;47.482;19.054;2022-07-03T00:21:00;100804.78;;;24.66;53.10
58759;BME280;46777;47.482;19.054;2022-07-03T00:23:52;100802.19;;;24.64;53.29
58759;BME280;46777;47.482;19.054;2022-07-03T00:26:39;100810.03;;;24.69;53.17
58759;BME280;46777;47.482;19.054;2022-07-03T00:29:30;100810.88;;;24.85;52.93
58759;BME280;46777;47.482;19.054;2022-07-03T00:32:22;100808.38;;;25.44;50.93
58759;BME280;46777;47.482;19.054;2022-07-03T00:35:07;100805.63;;;24.50;53.48
58759;BME280;46777;47.482;19.054;2022-07-03T00:37:52;100802.22;;;24.80;53.23
58759;BME280;46777;47.482;19.054;2022-07-03T00:40:37;100798.34;;;24.52;53.64
58759;BME280;46777;47.482;19.054;2022-07-03T00:43:24;100800.75;;;24.58;53.30
58759;BME280;46777;47.482;19.054;2022-07-03T00:46:09;100797.91;;;24.44;53.63
58759;BME280;46777;47.482;19.054;2022-07-03T00:48:56;100793.31;;;24.46;53.54
58759;BME280;46777;47.482;19.054;2022-07-03T00:51:42;100808.19;;;24.36;53.54
58759;BME280;46777;47.482;19.054;2022-07-03T00:54:27;100796.81;;;24.48;53.57
58759;BME280;46777;47.482;19.054;2022-07-03T00:57:15;100789.41;;;24.36;53.87
58759;BME280;46777;47.482;19.054;2022-07-03T01:00:00;100791.63;;;24.45;53.19
58759;BME280;46777;47.482;19.054;2022-07-03T01:03:05;100803.53;;;24.39;53.78
58759;BME280;46777;47.482;19.054;2022-07-03T01:05:55;100804.41;;;24.40;54.32
58759;BME280;46777;47.482;19.054;2022-07-03T01:08:48;100806.00;;;24.27;54.50
58759;BME280;46777;47.482;19.054;2022-07-03T01:11:38;100795.66;;;24.52;53.89
58759;BME280;46777;47.482;19.054;2022-07-03T01:14:43;100797.13;;;24.26;54.46
58759;BME280;46777;47.482;19.054;2022-07-03T01:17:38;100795.13;;;24.30;55.13
58759;BME280;46777;47.482;19.054;2022-07-03T01:20:27;100793.97;;;24.18;55.20
58759;BME280;46777;47.482;19.054;2022-07-03T01:23:24;100787.75;;;24.17;54.80
58759;BME280;46777;47.482;19.054;2022-07-03T01:26:15;100789.97;;;24.09;54.53
58759;BME280;46777;47.482;19.054;2022-07-03T01:29:04;100775.56;;;24.28;54.06
58759;BME280;46777;47.482;19.054;2022-07-03T01:31:54;100789.31;;;24.21;54.55
58759;BME280;46777;47.482;19.054;2022-07-03T01:34:43;100781.31;;;24.04;54.96
58759;BME280;46777;47.482;19.054;2022-07-03T01:37:30;100780.94;;;23.94;55.36
58759;BME280;46777;47.482;19.054;2022-07-03T01:40:17;100778.38;;;24.09;54.36
58759;BME280;46777;47.482;19.054;2022-07-03T01:43:05;100771.53;;;24.03;54.61
58759;BME280;46777;47.482;19.054;2022-07-03T01:45:51;100776.91;;;23.85;55.26
58759;BME280;46777;47.482;19.054;2022-07-03T01:48:41;100782.41;;;23.82;56.16
58759;BME280;46777;47.482;19.054;2022-07-03T01:51:27;100778.31;;;23.93;54.96
58759;BME280;46777;47.482;19.054;2022-07-03T01:54:13;100783.19;;;24.02;54.76
58759;BME280;46777;47.482;19.054;2022-07-03T01:56:58;100779.34;;;23.90;55.21
58759;BME280;46777;47.482;19.054;2022-07-03T01:59:45;100779.72;;;24.00;55.20
58759;BME280;46777;47.482;19.054;2022-07-03T02:02:33;100779.56;;;24.03;54.08
58759;BME280;46777;47.482;19.054;2022-07-03T02:05:29;100789.78;;;23.96;55.48
58759;BME280;46777;47.482;19.054;2022-07-03T02:08:57;100781.91;;;24.09;54.00
58759;BME280;46777;47.482;19.054;2022-07-03T02:11:24;100781.97;;;23.92;55.14
58759;BME280;46777;47.482;19.054;2022-07-03T02:14:18;100777.56;;;23.91;55.25
58759;BME280;46777;47.482;19.054;2022-07-03T02:17:20;100770.91;;;23.98;54.60
58759;BME280;46777;47.482;19.054;2022-07-03T02:20:08;100774.88;;;23.91;55.42
58759;BME280;46777;47.482;19.054;2022-07-03T02:22:59;100784.00;;;23.51;55.23
58759;BME280;46777;47.482;19.054;2022-07-03T02:25:50;100772.56;;;23.83;54.64
58759;BME280;46777;47.482;19.054;2022-07-03T02:28:58;100778.66;;;23.86;54.25
58759;BME280;46777;47.482;19.054;2022-07-03T02:31:46;100782.75;;;23.59;55.91
58759;BME280;46777;47.482;19.054;2022-07-03T02:34:32;100781.66;;;23.63;55.47
58759;BME280;46777;47.482;19.054;2022-07-03T02:37:19;100777.69;;;23.70;55.27
58759;BME280;46777;47.482;19.054;2022-07-03T02:40:20;100781.97;;;23.92;54.82
58759;BME280;46777;47.482;19.054;2022-07-03T02:43:23;100775.78;;;23.72;55.67
58759;BME280;46777;47.482;19.054;2022-07-03T02:46:20;100783.72;;;23.58;55.25
58759;BME280;46777;47.482;19.054;2022-07-03T02:55:40;100786.53;;;23.37;56.66
58759;BME280;46777;47.482;19.054;2022-07-03T03:01:48;100793.16;;;23.30;56.75
58759;BME280;46777;47.482;19.054;2022-07-03T03:04:42;100775.03;;;23.70;55.44
58759;BME280;46777;47.482;19.054;2022-07-03T03:10:38;100787.97;;;23.44;54.69
58759;BME280;46777;47.482;19.054;2022-07-03T03:13:25;100785.22;;;24.14;52.73
58759;BME280;46777;47.482;19.054;2022-07-03T03:16:15;100784.25;;;24.15;52.54
58759;BME280;46777;47.482;19.054;2022-07-03T03:19:00;100794.56;;;23.72;53.94
58759;BME280;46777;47.482;19.054;2022-07-03T03:24:35;100804.66;;;23.84;53.23
58759;BME280;46777;47.482;19.054;2022-07-03T03:27:21;100805.75;;;23.80;53.80
58759;BME280;46777;47.482;19.054;2022-07-03T03:30:06;100809.22;;;23.82;53.54
58759;BME280;46777;47.482;19.054;2022-07-03T03:32:51;100794.78;;;23.67;53.79
58759;BME280;46777;47.482;19.054;2022-07-03T03:35:36;100788.91;;;23.61;53.89
58759;BME280;46777;47.482;19.054;2022-07-03T03:38:22;100783.31;;;23.48;54.62
58759;BME280;46777;47.482;19.054;2022-07-03T03:41:07;100789.88;;;23.23;55.92
58759;BME280;46777;47.482;19.054;2022-07-03T03:43:52;100788.41;;;23.35;56.04
58759;BME280;46777;47.482;19.054;2022-07-03T03:46:37;100778.75;;;24.18;53.67
58759;BME280;46777;47.482;19.054;2022-07-03T03:49:22;100779.88;;;24.14;53.41
58759;BME280;46777;47.482;19.054;2022-07-03T03:52:07;100784.41;;;23.96;53.63
58759;BME280;46777;47.482;19.054;2022-07-03T03:54:52;100783.53;;;23.96;54.08
58759;BME280;46777;47.482;19.054;2022-07-03T03:57:37;100771.44;;;24.04;53.88
58759;BME280;46777;47.482;19.054;2022-07-03T04:00:22;100769.59;;;23.89;54.30
58759;BME280;46777;47.482;19.054;2022-07-03T04:03:07;100767.44;;;23.96;54.78
58759;BME280;46777;47.482;19.054;2022-07-03T04:05:52;100775.63;;;24.10;53.28
58759;BME280;46777;47.482;19.054;2022-07-03T04:08:37;100780.78;;;23.62;55.24
58759;BME280;46777;47.482;19.054;2022-07-03T04:11:21;100787.94;;;23.79;55.09
58759;BME280;46777;47.482;19.054;2022-07-03T04:14:06;100789.03;;;23.93;56.05
58759;BME280;46777;47.482;19.054;2022-07-03T04:16:51;100794.06;;;23.99;55.85
58759;BME280;46777;47.482;19.054;2022-07-03T04:19:36;100792.44;;;24.30;53.68
58759;BME280;46777;47.482;19.054;2022-07-03T04:22:20;100800.53;;;24.12;54.86
58759;BME280;46777;47.482;19.054;2022-07-03T04:25:05;100796.31;;;23.91;54.20
58759;BME280;46777;47.482;19.054;2022-07-03T04:27:50;100804.00;;;23.62;54.34
58759;BME280;46777;47.482;19.054;2022-07-03T04:30:35;100798.66;;;23.62;54.59
58759;BME280;46777;47.482;19.054;2022-07-03T04:33:19;100800.41;;;23.63;54.03
58759;BME280;46777;47.482;19.054;2022-07-03T04:36:04;100781.97;;;23.74;53.77
58759;BME280;46777;47.482;19.054;2022-07-03T04:38:49;100783.53;;;23.96;53.22
58759;BME280;46777;47.482;19.054;2022-07-03T04:41:34;100780.38;;;24.21;52.56
58759;BME280;46777;47.482;19.054;2022-07-03T04:44:19;100780.13;;;24.10;52.86
58759;BME280;46777;47.482;19.054;2022-07-03T04:47:04;100782.41;;;23.82;52.98
58759;BME280;46777;47.482;19.054;2022-07-03T04:49:48;100788.00;;;24.13;52.28
58759;BME280;46777;47.482;19.054;2022-07-03T04:52:33;100791.03;;;24.22;52.58
58759;BME280;46777;47.482;19.054;2022-07-03T04:55:18;100779.03;;;24.30;52.17
58759;BME280;46777;47.482;19.054;2022-07-03T04:58:03;100772.66;;;24.48;52.11
58759;BME280;46777;47.482;19.054;2022-07-03T05:00:47;100765.59;;;24.30;52.46
58759;BME280;46777;47.482;19.054;2022-07-03T05:03:32;100772.00;;;24.27;52.60
58759;BME280;46777;47.482;19.054;2022-07-03T05:06:17;100766.53;;;24.29;52.81
58759;BME280;46777;47.482;19.054;2022-07-03T05:09:02;100764.03;;;24.26;52.89
58759;BME280;46777;47.482;19.054;2022-07-03T05:11:47;100760.97;;;24.33;52.37
58759;BME280;46777;47.482;19.054;2022-07-03T05:14:32;100759.31;;;24.47;52.96
58759;BME280;46777;47.482;19.054;2022-07-03T05:17:17;100758.34;;;24.32;53.21
58759;BME280;46777;47.482;19.054;2022-07-03T05:20:06;100762.88;;;24.47;52.94
58759;BME280;46777;47.482;19.054;2022-07-03T05:23:09;100766.63;;;24.61;52.98
58759;BME280;46777;47.482;19.054;2022-07-03T05:25:54;100765.28;;;24.52;53.33
58759;BME280;46777;47.482;19.054;2022-07-03T05:28:39;100762.72;;;24.82;52.39
58759;BME280;46777;47.482;19.054;2022-07-03T05:31:24;100767.22;;;24.66;52.06
58759;BME280;46777;47.482;19.054;2022-07-03T05:34:09;100755.78;;;26.28;48.23
58759;BME280;46777;47.482;19.054;2022-07-03T05:36:53;100763.94;;;24.61;52.14
58759;BME280;46777;47.482;19.054;2022-07-03T05:39:41;100761.94;;;24.64;52.47
58759;BME280;46777;47.482;19.054;2022-07-03T05:42:26;100761.69;;;24.69;52.53
58759;BME280;46777;47.482;19.054;2022-07-03T05:45:11;100766.47;;;25.10;50.97
58759;BME280;46777;47.482;19.054;2022-07-03T05:47:56;100762.13;;;25.23;50.77
58759;BME280;46777;47.482;19.054;2022-07-03T05:50:41;100767.31;;;25.26;51.03
58759;BME280;46777;47.482;19.054;2022-07-03T05:53:26;100761.94;;;25.26;50.97
58759;BME280;46777;47.482;19.054;2022-07-03T05:56:11;100764.22;;;25.18;50.63
58759;BME280;46777;47.482;19.054;2022-07-03T05:58:56;100762.78;;;25.43;50.70
58759;BME280;46777;47.482;19.054;2022-07-03T06:01:41;100769.22;;;25.40;51.33
58759;BME280;46777;47.482;19.054;2022-07-03T06:04:26;100767.09;;;25.90;50.09
58759;BME280;46777;47.482;19.054;2022-07-03T06:07:11;100766.13;;;25.77;49.68
58759;BME280;46777;47.482;19.054;2022-07-03T06:09:55;100770.78;;;26.04;49.29
58759;BME280;46777;47.482;19.054;2022-07-03T06:12:40;100763.25;;;25.94;49.25
58759;BME280;46777;47.482;19.054;2022-07-03T06:15:25;100773.81;;;25.97;49.22
58759;BME280;46777;47.482;19.054;2022-07-03T06:18:10;100767.91;;;26.36;48.08
58759;BME280;46777;47.482;19.054;2022-07-03T06:20:55;100768.94;;;26.33;48.37
58759;BME280;46777;47.482;19.054;2022-07-03T06:23:39;100773.25;;;25.78;49.86
58759;BME280;46777;47.482;19.054;2022-07-03T06:26:24;100772.00;;;26.56;47.69
58759;BME280;46777;47.482;19.054;2022-07-03T06:29:09;100774.22;;;26.49;48.26
58759;BME280;46777;47.482;19.054;2022-07-03T06:31:54;100778.78;;;26.90;46.62
58759;BME280;46777;47.482;19.054;2022-07-03T06:34:39;100774.38;;;27.29;45.60
58759;BME280;46777;47.482;19.054;2022-07-03T06:37:24;100778.56;;;26.93;46.76
58759;BME280;46777;47.482;19.054;2022-07-03T06:40:09;100773.31;;;26.77;47.84
58759;BME280;46777;47.482;19.054;2022-07-03T06:42:54;100764.94;;;26.82;47.49
58759;BME280;46777;47.482;19.054;2022-07-03T06:45:39;100765.66;;;26.98;47.27
58759;BME280;46777;47.482;19.054;2022-07-03T06:48:24;100767.09;;;27.04;46.84
58759;BME280;46777;47.482;19.054;2022-07-03T06:51:09;100774.75;;;26.83;48.16
58759;BME280;46777;47.482;19.054;2022-07-03T06:53:54;100766.91;;;27.20;46.87
58759;BME280;46777;47.482;19.054;2022-07-03T06:56:38;100766.59;;;26.97;47.31
58759;BME280;46777;47.482;19.054;2022-07-03T06:59:23;100769.69;;;26.49;47.36
58759;BME280;46777;47.482;19.054;2022-07-03T07:02:08;100758.09;;;26.91;47.19
58759;BME280;46777;47.482;19.054;2022-07-03T07:04:53;100756.44;;;27.68;45.06
58759;BME280;46777;47.482;19.054;2022-07-03T07:07:37;100756.63;;;26.99;46.07
58759;BME280;46777;47.482;19.054;2022-07-03T07:10:22;100753.94;;;27.40;46.22
58759;BME280;46777;47.482;19.054;2022-07-03T07:13:08;100748.28;;;27.17;46.09
58759;BME280;46777;47.482;19.054;2022-07-03T07:15:52;100740.16;;;27.44;45.17
58759;BME280;46777;47.482;19.054;2022-07-03T07:18:40;100743.22;;;27.91;44.25
58759;BME280;46777;47.482;19.054;2022-07-03T07:21:25;100742.47;;;28.02;44.61
58759;BME280;46777;47.482;19.054;2022-07-03T07:24:10;100750.22;;;28.06;44.24
58759;BME280;46777;47.482;19.054;2022-07-03T07:26:55;100742.97;;;27.94;44.49
58759;BME280;46777;47.482;19.054;2022-07-03T07:29:40;100733.16;;;28.19;44.26
58759;BME280;46777;47.482;19.054;2022-07-03T07:32:25;100744.72;;;28.08;44.08
58759;BME280;46777;47.482;19.054;2022-07-03T07:35:09;100738.13;;;27.99;44.56
58759;BME280;46777;47.482;19.054;2022-07-03T07:37:54;100739.25;;;28.47;43.81
58759;BME280;46777;47.482;19.054;2022-07-03T07:40:39;100745.13;;;28.15;44.33
58759;BME280;46777;47.482;19.054;2022-07-03T07:43:24;100745.00;;;28.29;44.16
58759;BME280;46777;47.482;19.054;2022-07-03T07:46:09;100745.16;;;28.52;43.59
58759;BME280;46777;47.482;19.054;2022-07-03T07:48:54;100756.81;;;27.89;44.71
58759;BME280;46777;47.482;19.054;2022-07-03T07:51:38;100747.03;;;28.38;44.10
58759;BME280;46777;47.482;19.054;2022-07-03T07:54:23;100757.56;;;28.54;43.86
58759;BME280;46777;47.482;19.054;2022-07-03T07:57:08;100745.56;;;28.95;43.32
58759;BME280;46777;47.482;19.054;2022-07-03T07:59:53;100755.16;;;28.75;43.20
58759;BME280;46777;47.482;19.054;2022-07-03T08:02:39;100757.47;;;28.69;43.49
58759;BME280;46777;47.482;19.054;2022-07-03T08:05:42;100758.63;;;28.77;43.42
58759;BME280;46777;47.482;19.054;2022-07-03T08:08:27;100764.97;;;29.01;43.31
58759;BME280;46777;47.482;19.054;2022-07-03T08:11:12;100759.47;;;29.62;42.50
58759;BME280;46777;47.482;19.054;2022-07-03T08:13:57;100761.66;;;29.57;42.85
58759;BME280;46777;47.482;19.054;2022-07-03T08:16:42;100752.72;;;29.79;42.51
58759;BME280;46777;47.482;19.054;2022-07-03T08:19:28;100745.75;;;30.22;41.87
58759;BME280;46777;47.482;19.054;2022-07-03T08:22:13;100749.28;;;29.30;42.47
58759;BME280;46777;47.482;19.054;2022-07-03T08:24:57;100745.03;;;29.86;40.86
58759;BME280;46777;47.482;19.054;2022-07-03T08:27:42;100748.66;;;29.73;41.52
58759;BME280;46777;47.482;19.054;2022-07-03T08:30:27;100748.09;;;30.49;40.56
58759;BME280;46777;47.482;19.054;2022-07-03T08:33:12;100740.94;;;29.33;43.00
58759;BME280;46777;47.482;19.054;2022-07-03T08:35:57;100748.47;;;29.17;42.40
58759;BME280;46777;47.482;19.054;2022-07-03T08:38:42;100738.63;;;29.98;41.41
58759;BME280;46777;47.482;19.054;2022-07-03T08:41:28;100738.22;;;29.22;42.10
58759;BME280;46777;47.482;19.054;2022-07-03T08:44:14;100739.53;;;29.52;42.20
58759;BME280;46777;47.482;19.054;2022-07-03T08:47:02;100746.88;;;30.19;40.76
58759;BME280;46777;47.482;19.054;2022-07-03T08:49:48;100735.94;;;30.09;40.87
58759;BME280;46777;47.482;19.054;2022-07-03T08:52:34;100737.84;;;30.30;41.14
58759;BME280;46777;47.482;19.054;2022-07-03T08:55:19;100723.81;;;30.59;40.49
58759;BME280;46777;47.482;19.054;2022-07-03T08:58:05;100732.72;;;30.49;40.05
58759;BME280;46777;47.482;19.054;2022-07-03T09:00:50;100730.97;;;30.92;39.12
58759;BME280;46777;47.482;19.054;2022-07-03T09:03:35;100729.75;;;30.41;39.92
58759;BME280;46777;47.482;19.054;2022-07-03T09:06:20;100723.78;;;30.70;39.79
58759;BME280;46777;47.482;19.054;2022-07-03T09:09:06;100723.28;;;30.76;39.26
58759;BME280;46777;47.482;19.054;2022-07-03T09:11:51;100731.91;;;31.35;38.67
58759;BME280;46777;47.482;19.054;2022-07-03T09:14:36;100714.75;;;30.26;39.84
58759;BME280;46777;47.482;19.054;2022-07-03T09:17:21;100714.72;;;31.25;38.62
58759;BME280;46777;47.482;19.054;2022-07-03T09:20:07;100702.25;;;32.26;36.70
58759;BME280;46777;47.482;19.054;2022-07-03T09:22:52;100713.03;;;31.54;37.96
58759;BME280;46777;47.482;19.054;2022-07-03T09:25:57;100706.06;;;31.73;37.71
58759;BME280;46777;47.482;19.054;2022-07-03T09:31:30;100704.75;;;32.08;38.10
58759;BME280;46777;47.482;19.054;2022-07-03T09:34:15;100701.88;;;32.00;38.50
58759;BME280;46777;47.482;19.054;2022-07-03T09:37:05;100695.34;;;31.50;35.98
58759;BME280;46777;47.482;19.054;2022-07-03T09:39:56;100683.75;;;32.60;34.72
58759;BME280;46777;47.482;19.054;2022-07-03T09:43:03;100679.22;;;32.90;33.57
58759;BME280;46777;47.482;19.054;2022-07-03T09:45:56;100672.63;;;32.83;33.31
58759;BME280;46777;47.482;19.054;2022-07-03T09:48:41;100678.03;;;32.44;33.94
58759;BME280;46777;47.482;19.054;2022-07-03T09:51:26;100677.59;;;33.37;32.80
58759;BME280;46777;47.482;19.054;2022-07-03T09:54:14;100669.47;;;33.17;34.05
58759;BME280;46777;47.482;19.054;2022-07-03T09:56:59;100664.72;;;33.19;33.66
58759;BME280;46777;47.482;19.054;2022-07-03T09:59:44;100662.94;;;34.32;31.57
58759;BME280;46777;47.482;19.054;2022-07-03T10:02:29;100667.19;;;33.79;32.83
58759;BME280;46777;47.482;19.054;2022-07-03T10:05:14;100662.50;;;33.62;30.98
58759;BME280;46777;47.482;19.054;2022-07-03T10:10:48;100658.44;;;33.76;31.34
58759;BME280;46777;47.482;19.054;2022-07-03T10:13:37;100645.66;;;33.86;30.94
58759;BME280;46777;47.482;19.054;2022-07-03T10:16:23;100647.41;;;33.77;30.67
58759;BME280;46777;47.482;19.054;2022-07-03T10:19:13;100642.81;;;35.50;28.15
58759;BME280;46777;47.482;19.054;2022-07-03T10:22:01;100637.41;;;37.18;26.77
58759;BME280;46777;47.482;19.054;2022-07-03T10:24:47;100635.19;;;38.95;24.27
58759;BME280;46777;47.482;19.054;2022-07-03T10:27:32;100629.34;;;38.28;22.37
58759;BME280;46777;47.482;19.054;2022-07-03T10:30:19;100628.25;;;38.61;22.12
58759;BME280;46777;47.482;19.054;2022-07-03T10:33:05;100629.75;;;37.69;23.88
58759;BME280;46777;47.482;19.054;2022-07-03T10:35:52;100625.06;;;36.48;26.00
58759;BME280;46777;47.482;19.054;2022-07-03T10:38:38;100618.84;;;36.21;24.76
58759;BME280;46777;47.482;19.054;2022-07-03T10:41:32;100609.03;;;36.69;24.66
58759;BME280;46777;47.482;19.054;2022-07-03T10:44:49;100607.25;;;36.19;26.29
58759;BME280;46777;47.482;19.054;2022-07-03T10:47:47;100605.16;;;37.61;24.14
58759;BME280;46777;47.482;19.054;2022-07-03T10:50:32;100599.75;;;37.84;23.64
58759;BME280;46777;47.482;19.054;2022-07-03T10:53:22;100599.94;;;37.82;23.66
58759;BME280;46777;47.482;19.054;2022-07-03T10:56:07;100588.31;;;37.80;22.93
58759;BME280;46777;47.482;19.054;2022-07-03T11:01:40;100587.81;;;37.12;24.36
58759;BME280;46777;47.482;19.054;2022-07-03T11:04:25;100589.44;;;39.70;22.44
58759;BME280;46777;47.482;19.054;2022-07-03T11:07:10;100568.72;;;44.52;17.84
58759;BME280;46777;47.482;19.054;2022-07-03T11:15:53;100560.97;;;46.39;15.02
58759;BME280;46777;47.482;19.054;2022-07-03T11:18:38;100558.16;;;47.86;14.30
58759;BME280;46777;47.482;19.054;2022-07-03T11:21:30;100555.47;;;46.86;15.28
58759;BME280;46777;47.482;19.054;2022-07-03T11:24:27;100543.34;;;46.45;14.96
58759;BME280;46777;47.482;19.054;2022-07-03T11:27:23;100554.63;;;46.62;14.33
58759;BME280;46777;47.482;19.054;2022-07-03T11:30:09;100535.59;;;49.02;12.79
58759;BME280;46777;47.482;19.054;2022-07-03T11:32:56;100537.66;;;48.89;12.60
58759;BME280;46777;47.482;19.054;2022-07-03T11:35:53;100532.88;;;49.51;12.56
58759;BME280;46777;47.482;19.054;2022-07-03T11:38:38;100523.28;;;49.64;12.26
58759;BME280;46777;47.482;19.054;2022-07-03T11:41:24;100520.03;;;48.67;12.68
58759;BME280;46777;47.482;19.054;2022-07-03T11:44:14;100536.41;;;49.91;12.06
58759;BME280;46777;47.482;19.054;2022-07-03T11:46:59;100524.44;;;49.90;12.24
58759;BME280;46777;47.482;19.054;2022-07-03T11:49:47;100523.22;;;50.51;12.22
58759;BME280;46777;47.482;19.054;2022-07-03T11:52:33;100509.84;;;50.53;12.24
58759;BME280;46777;47.482;19.054;2022-07-03T11:55:18;100513.19;;;49.36;12.37
58759;BME280;46777;47.482;19.054;2022-07-03T11:58:03;100509.50;;;51.45;11.41
58759;BME280;46777;47.482;19.054;2022-07-03T12:00:48;100503.28;;;50.75;11.85
58759;BME280;46777;47.482;19.054;2022-07-03T12:03:34;100497.88;;;51.00;11.66
58759;BME280;46777;47.482;19.054;2022-07-03T12:06:20;100495.75;;;52.98;11.02
58759;BME280;46777;47.482;19.054;2022-07-03T12:12:05;100486.28;;;51.55;11.59
58759;BME280;46777;47.482;19.054;2022-07-03T12:14:54;100481.16;;;51.11;11.68
58759;BME280;46777;47.482;19.054;2022-07-03T12:17:44;100485.78;;;51.58;11.05
58759;BME280;46777;47.482;19.054;2022-07-03T12:20:29;100471.59;;;53.07;10.15
58759;BME280;46777;47.482;19.054;2022-07-03T12:23:14;100476.78;;;51.46;11.29
58759;BME280;46777;47.482;19.054;2022-07-03T12:25:59;100464.88;;;53.08;10.90
58759;BME280;46777;47.482;19.054;2022-07-03T12:28:44;100460.81;;;52.70;10.91
58759;BME280;46777;47.482;19.054;2022-07-03T12:31:29;100459.94;;;54.14;9.82
58759;BME280;46777;47.482;19.054;2022-07-03T12:34:15;100458.22;;;52.89;11.13
58759;BME280;46777;47.482;19.054;2022-07-03T12:37:01;100453.25;;;52.75;10.50
58759;BME280;46777;47.482;19.054;2022-07-03T12:39:47;100457.06;;;50.99;10.89
58759;BME280;46777;47.482;19.054;2022-07-03T12:42:48;100451.22;;;54.16;9.26
58759;BME280;46777;47.482;19.054;2022-07-03T12:45:33;100449.63;;;54.04;9.40
58759;BME280;46777;47.482;19.054;2022-07-03T12:48:18;100463.78;;;51.04;10.65
58759;BME280;46777;47.482;19.054;2022-07-03T12:51:03;100459.69;;;50.63;10.77
58759;BME280;46777;47.482;19.054;2022-07-03T12:53:54;100452.16;;;51.43;10.12
58759;BME280;46777;47.482;19.054;2022-07-03T12:56:40;100459.13;;;53.39;9.25
58759;BME280;46777;47.482;19.054;2022-07-03T12:59:26;100455.16;;;54.14;8.16
58759;BME280;46777;47.482;19.054;2022-07-03T13:02:11;100448.03;;;51.71;9.78
58759;BME280;46777;47.482;19.054;2022-07-03T13:04:58;100441.16;;;45.16;14.38
58759;BME280;46777;47.482;19.054;2022-07-03T13:07:46;100443.66;;;42.95;17.01
58759;BME280;46777;47.482;19.054;2022-07-03T13:10:31;100439.94;;;42.09;17.85
58759;BME280;46777;47.482;19.054;2022-07-03T13:13:16;100442.09;;;40.34;19.24
58759;BME280;46777;47.482;19.054;2022-07-03T13:16:00;100439.75;;;40.52;19.13
58759;BME280;46777;47.482;19.054;2022-07-03T13:18:59;100435.34;;;39.13;20.57
58759;BME280;46777;47.482;19.054;2022-07-03T13:21:44;100438.09;;;40.58;19.35
58759;BME280;46777;47.482;19.054;2022-07-03T13:24:29;100434.44;;;40.01;19.99
58759;BME280;46777;47.482;19.054;2022-07-03T13:27:13;100433.88;;;39.32;20.16
58759;BME280;46777;47.482;19.054;2022-07-03T13:29:59;100429.22;;;39.33;20.72
58759;BME280;46777;47.482;19.054;2022-07-03T13:32:45;100434.97;;;38.86;20.25
58759;BME280;46777;47.482;19.054;2022-07-03T13:35:29;100432.63;;;39.71;20.11
58759;BME280;46777;47.482;19.054;2022-07-03T13:38:14;100421.38;;;38.25;20.45
58759;BME280;46777;47.482;19.054;2022-07-03T13:40:59;100422.75;;;38.59;20.92
58759;BME280;46777;47.482;19.054;2022-07-03T13:43:44;100423.50;;;38.15;20.32
58759;BME280;46777;47.482;19.054;2022-07-03T13:46:29;100424.03;;;38.18;20.51
58759;BME280;46777;47.482;19.054;2022-07-03T13:49:14;100421.22;;;39.01;20.54
58759;BME280;46777;47.482;19.054;2022-07-03T13:51:59;100418.16;;;38.22;20.89
58759;BME280;46777;47.482;19.054;2022-07-03T13:54:43;100423.88;;;37.89;19.63
58759;BME280;46777;47.482;19.054;2022-07-03T13:57:28;100417.28;;;36.81;21.28
58759;BME280;46777;47.482;19.054;2022-07-03T14:00:13;100417.91;;;36.91;21.64
58759;BME280;46777;47.482;19.054;2022-07-03T14:03:01;100417.63;;;36.77;21.77
58759;BME280;46777;47.482;19.054;2022-07-03T14:05:46;100414.41;;;37.13;20.97
58759;BME280;46777;47.482;19.054;2022-07-03T14:08:35;100413.09;;;37.64;20.84
58759;BME280;46777;47.482;19.054;2022-07-03T14:11:20;100418.69;;;37.71;21.03
58759;BME280;46777;47.482;19.054;2022-07-03T14:14:04;100417.13;;;37.13;21.54
58759;BME280;46777;47.482;19.054;2022-07-03T14:16:51;100415.88;;;37.33;21.26
58759;BME280;46777;47.482;19.054;2022-07-03T14:19:35;100424.38;;;36.98;21.89
58759;BME280;46777;47.482;19.054;2022-07-03T14:22:20;100411.94;;;36.87;21.85
58759;BME280;46777;47.482;19.054;2022-07-03T14:25:05;100411.38;;;36.28;22.38
58759;BME280;46777;47.482;19.054;2022-07-03T14:27:50;100410.44;;;36.76;20.90
58759;BME280;46777;47.482;19.054;2022-07-03T14:30:54;100413.91;;;36.37;21.79
58759;BME280;46777;47.482;19.054;2022-07-03T14:33:57;100418.19;;;36.15;22.02
58759;BME280;46777;47.482;19.054;2022-07-03T14:36:42;100405.00;;;36.60;22.01
58759;BME280;46777;47.482;19.054;2022-07-03T14:39:27;100409.41;;;36.61;22.96
58759;BME280;46777;47.482;19.054;2022-07-03T14:42:11;100413.59;;;36.32;23.39
58759;BME280;46777;47.482;19.054;2022-07-03T14:44:56;100401.22;;;36.61;22.55
58759;BME280;46777;47.482;19.054;2022-07-03T14:47:41;100402.94;;;36.62;22.26
58759;BME280;46777;47.482;19.054;2022-07-03T14:50:26;100404.66;;;36.63;22.82
58759;BME280;46777;47.482;19.054;2022-07-03T14:53:11;100412.22;;;35.79;23.46
58759;BME280;46777;47.482;19.054;2022-07-03T14:55:56;100406.00;;;35.52;24.30